createdAt,value
2019-01-12T00:00:22.834Z,0.00
2019-01-12T00:01:22.732Z,0.00
2019-01-12T00:02:22.628Z,0.00
2019-01-12T00:03:22.530Z,0.00
2019-01-12T00:04:22.442Z,0.00
2019-01-12T00:05:22.318Z,0.00
2019-01-12T00:06:22.217Z,0.00
2019-01-12T00:07:22.115Z,0.00
2019-01-12T00:08:22.006Z,0.00
2019-01-12T00:09:21.962Z,0.00
2019-01-12T00:10:21.800Z,0.00
2019-01-12T00:11:21.701Z,0.00
2019-01-12T00:12:21.601Z,0.00
2019-01-12T00:13:21.492Z,0.00
2019-01-12T00:14:21.409Z,0.00
2019-01-12T00:15:21.285Z,0.00
2019-01-12T00:16:21.521Z,0.00
2019-01-12T00:17:21.079Z,0.00
2019-01-12T00:18:20.977Z,0.00
2019-01-12T00:19:20.875Z,0.00
2019-01-12T00:20:20.787Z,0.00
2019-01-12T00:21:20.666Z,0.00
2019-01-12T00:22:20.560Z,0.00
2019-01-12T00:23:20.457Z,0.00
2019-01-12T00:24:20.357Z,0.00
2019-01-12T00:25:20.269Z,0.00
2019-01-12T00:26:20.152Z,0.00
2019-01-12T00:27:20.045Z,0.00
2019-01-12T00:28:19.939Z,0.00
2019-01-12T00:29:19.842Z,0.00
2019-01-12T00:30:19.754Z,0.00
2019-01-12T00:31:19.631Z,0.00
2019-01-12T00:32:19.828Z,0.00
2019-01-12T00:33:19.427Z,0.00
2019-01-12T00:34:19.325Z,0.00
2019-01-12T00:35:19.237Z,0.00
2019-01-12T00:36:19.117Z,0.00
2019-01-12T00:37:19.011Z,0.00
2019-01-12T00:38:18.907Z,0.00
2019-01-12T00:39:18.911Z,0.00
2019-01-12T00:40:18.716Z,0.00
2019-01-12T00:41:18.603Z,0.00
2019-01-12T00:42:18.498Z,0.00
2019-01-12T00:43:18.393Z,0.00
2019-01-12T00:44:18.286Z,0.00
2019-01-12T00:45:18.201Z,0.00
2019-01-12T00:46:18.184Z,0.00
2019-01-12T00:47:17.977Z,0.00
2019-01-12T00:48:17.877Z,0.00
2019-01-12T00:49:17.772Z,0.00
2019-01-12T00:50:17.683Z,0.00
2019-01-12T00:51:17.564Z,0.00
2019-01-12T00:52:17.459Z,0.00
2019-01-12T00:53:17.466Z,0.00
2019-01-12T00:54:17.259Z,0.00
2019-01-12T00:55:17.172Z,0.00
2019-01-12T00:56:17.048Z,0.00
2019-01-12T00:57:16.947Z,0.00
2019-01-12T00:58:16.841Z,0.00
2019-01-12T00:59:16.738Z,0.00
2019-01-12T01:00:16.655Z,0.00
2019-01-12T01:01:16.533Z,0.00
2019-01-12T01:02:16.430Z,0.00
2019-01-12T01:03:16.345Z,0.00
2019-01-12T01:04:16.220Z,0.00
2019-01-12T01:05:16.138Z,0.00
2019-01-12T01:06:16.017Z,0.00
2019-01-12T01:07:16.015Z,0.00
2019-01-12T01:08:15.810Z,0.00
2019-01-12T01:09:15.704Z,0.00
2019-01-12T01:10:15.621Z,0.00
2019-01-12T01:11:15.505Z,0.00
2019-01-12T01:12:15.416Z,0.00
2019-01-12T01:13:15.292Z,0.00
2019-01-12T01:14:15.292Z,0.00
2019-01-12T01:15:15.101Z,0.00
2019-01-12T01:16:14.982Z,0.00
2019-01-12T01:17:14.882Z,0.00
2019-01-12T01:18:14.779Z,0.00
2019-01-12T01:19:14.677Z,0.00
2019-01-12T01:20:14.585Z,0.00
2019-01-12T01:21:14.571Z,0.00
2019-01-12T01:22:14.369Z,0.00
2019-01-12T01:23:14.260Z,0.00
2019-01-12T01:24:14.160Z,0.00
2019-01-12T01:25:14.072Z,0.00
2019-01-12T01:26:13.950Z,0.00
2019-01-12T01:27:13.851Z,0.00
2019-01-12T01:28:13.845Z,0.00
2019-01-12T01:29:13.639Z,0.00
2019-01-12T01:30:13.556Z,0.00
2019-01-12T01:31:13.435Z,0.00
2019-01-12T01:32:13.334Z,0.00
2019-01-12T01:33:13.230Z,0.00
2019-01-12T01:34:13.126Z,0.00
2019-01-12T01:35:13.146Z,0.00
2019-01-12T01:36:12.918Z,0.00
2019-01-12T01:37:12.814Z,0.00
2019-01-12T01:38:12.763Z,0.00
2019-01-12T01:39:12.613Z,0.00
2019-01-12T01:40:12.534Z,0.00
2019-01-12T01:41:12.401Z,0.00
2019-01-12T01:42:12.405Z,0.00
2019-01-12T01:43:12.196Z,0.00
2019-01-12T01:44:12.092Z,0.00
2019-01-12T01:45:12.005Z,0.00
2019-01-12T01:46:11.886Z,0.00
2019-01-12T01:47:11.783Z,0.00
2019-01-12T01:48:11.683Z,0.00
2019-01-12T01:49:11.696Z,0.00
2019-01-12T01:50:11.489Z,0.00
2019-01-12T01:51:11.373Z,0.00
2019-01-12T01:52:11.267Z,0.00
2019-01-12T01:53:11.160Z,0.00
2019-01-12T01:54:11.061Z,0.00
2019-01-12T01:55:10.982Z,0.00
2019-01-12T01:56:10.960Z,0.00
2019-01-12T01:57:10.756Z,0.00
2019-01-12T01:58:10.655Z,0.00
2019-01-12T01:59:10.551Z,0.00
2019-01-12T02:00:10.459Z,0.00
2019-01-12T02:01:10.338Z,0.00
2019-01-12T02:02:10.238Z,0.00
2019-01-12T02:03:10.246Z,0.00
2019-01-12T02:04:10.029Z,0.00
2019-01-12T02:05:09.928Z,0.00
2019-01-12T02:06:09.843Z,0.00
2019-01-12T02:07:09.723Z,0.00
2019-01-12T02:08:09.618Z,0.00
2019-01-12T02:09:09.513Z,0.00
2019-01-12T02:10:09.514Z,0.00
2019-01-12T02:11:09.324Z,0.00
2019-01-12T02:12:09.206Z,0.00
2019-01-12T02:13:09.103Z,0.00
2019-01-12T02:14:09.004Z,0.00
2019-01-12T02:15:08.902Z,0.00
2019-01-12T02:16:08.928Z,0.00
2019-01-12T02:17:08.693Z,0.00
2019-01-12T02:18:08.588Z,0.00
2019-01-12T02:19:08.485Z,0.00
2019-01-12T02:20:08.381Z,0.00
2019-01-12T02:21:08.296Z,0.00
2019-01-12T02:22:08.173Z,0.00
2019-01-12T02:23:08.078Z,0.00
2019-01-12T02:24:07.970Z,0.00
2019-01-12T02:25:07.870Z,0.00
2019-01-12T02:26:07.777Z,0.00
2019-01-12T02:27:07.658Z,0.00
2019-01-12T02:28:07.555Z,0.00
2019-01-12T02:29:07.453Z,0.00
2019-01-12T02:30:07.352Z,0.00
2019-01-12T02:31:07.267Z,0.00
2019-01-12T02:32:07.146Z,0.00
2019-01-12T02:33:07.041Z,0.00
2019-01-12T02:34:06.941Z,0.00
2019-01-12T02:35:06.834Z,0.00
2019-01-12T02:36:06.751Z,0.00
2019-01-12T02:37:06.626Z,0.00
2019-01-12T02:38:06.527Z,0.00
2019-01-12T02:39:06.424Z,0.00
2019-01-12T02:40:06.319Z,0.00
2019-01-12T02:41:06.236Z,0.00
2019-01-12T02:42:06.116Z,0.00
2019-01-12T02:43:06.011Z,0.00
2019-01-12T02:44:05.907Z,0.00
2019-01-12T02:45:05.806Z,0.00
2019-01-12T02:46:05.719Z,0.00
2019-01-12T02:47:05.596Z,0.00
2019-01-12T02:48:05.496Z,0.00
2019-01-12T02:49:05.394Z,0.00
2019-01-12T02:50:05.300Z,0.00
2019-01-12T02:51:05.209Z,0.00
2019-01-12T02:52:05.081Z,0.00
2019-01-12T02:53:04.982Z,0.00
2019-01-12T02:54:04.883Z,0.00
2019-01-12T02:55:08.900Z,0.00
2019-01-12T02:56:04.689Z,0.00
2019-01-12T02:57:04.567Z,0.00
2019-01-12T02:58:04.463Z,0.00
2019-01-12T02:59:04.362Z,0.00
2019-01-12T03:00:04.259Z,0.00
2019-01-12T03:01:04.177Z,0.00
2019-01-12T03:02:04.055Z,0.00
2019-01-12T03:03:03.962Z,0.00
2019-01-12T03:04:03.843Z,0.00
2019-01-12T03:05:03.744Z,0.00
2019-01-12T03:06:03.661Z,0.00
2019-01-12T03:07:03.538Z,0.00
2019-01-12T03:08:03.435Z,0.00
2019-01-12T03:09:03.330Z,0.00
2019-01-12T03:10:03.229Z,0.00
2019-01-12T03:11:03.143Z,0.00
2019-01-12T03:12:03.017Z,0.00
2019-01-12T03:13:02.917Z,0.00
2019-01-12T03:14:02.817Z,0.00
2019-01-12T03:15:02.711Z,0.00
2019-01-12T03:16:02.632Z,0.00
2019-01-12T03:17:02.507Z,0.00
2019-01-12T03:18:02.408Z,0.00
2019-01-12T03:19:02.304Z,0.00
2019-01-12T03:20:02.197Z,0.00
2019-01-12T03:21:02.128Z,0.00
2019-01-12T03:22:01.990Z,0.00
2019-01-12T03:23:01.892Z,0.00
2019-01-12T03:24:01.787Z,0.00
2019-01-12T03:25:01.683Z,0.00
2019-01-12T03:26:01.699Z,0.00
2019-01-12T03:27:01.480Z,0.00
2019-01-12T03:28:01.377Z,0.00
2019-01-12T03:29:01.274Z,0.00
2019-01-12T03:30:01.177Z,0.00
2019-01-12T03:31:01.083Z,0.00
2019-01-12T03:32:00.964Z,0.00
2019-01-12T03:33:00.964Z,0.00
2019-01-12T03:34:00.757Z,0.00
2019-01-12T03:35:00.651Z,0.00
2019-01-12T03:36:00.568Z,0.00
2019-01-12T03:37:00.459Z,0.00
2019-01-12T03:38:00.342Z,0.00
2019-01-12T03:39:00.255Z,0.00
2019-01-12T03:40:00.246Z,0.00
2019-01-12T03:41:00.048Z,0.00
2019-01-12T03:41:59.930Z,0.00
2019-01-12T03:42:59.831Z,0.00
2019-01-12T03:43:59.725Z,0.00
2019-01-12T03:44:59.627Z,0.00
2019-01-12T03:45:59.519Z,0.00
2019-01-12T03:46:59.542Z,0.00
2019-01-12T03:47:59.311Z,0.00
2019-01-12T03:48:59.209Z,0.00
2019-01-12T03:49:59.110Z,0.00
2019-01-12T03:50:59.020Z,0.00
2019-01-12T03:51:58.901Z,0.00
2019-01-12T03:52:58.798Z,0.00
2019-01-12T03:53:58.805Z,0.00
2019-01-12T03:54:58.594Z,0.00
2019-01-12T03:55:58.490Z,0.00
2019-01-12T03:56:58.404Z,0.00
2019-01-12T03:57:58.286Z,0.00
2019-01-12T03:58:58.179Z,0.00
2019-01-12T03:59:58.078Z,0.00
2019-01-12T04:00:58.080Z,0.00
2019-01-12T04:01:57.887Z,0.00
2019-01-12T04:02:57.771Z,0.00
2019-01-12T04:03:57.670Z,0.00
2019-01-12T04:04:57.562Z,0.00
2019-01-12T04:05:57.467Z,0.00
2019-01-12T04:06:57.378Z,0.00
2019-01-12T04:07:57.359Z,0.00
2019-01-12T04:08:57.277Z,0.00
2019-01-12T04:09:57.052Z,0.00
2019-01-12T04:10:56.945Z,0.00
2019-01-12T04:11:56.881Z,0.00
2019-01-12T04:12:56.738Z,0.00
2019-01-12T04:13:56.637Z,0.00
2019-01-12T04:14:56.640Z,0.00
2019-01-12T04:15:56.427Z,0.00
2019-01-12T04:16:56.342Z,0.00
2019-01-12T04:17:56.224Z,0.00
2019-01-12T04:18:56.124Z,0.00
2019-01-12T04:19:56.014Z,0.00
2019-01-12T04:20:55.915Z,0.00
2019-01-12T04:21:55.928Z,0.00
2019-01-12T04:22:55.711Z,0.00
2019-01-12T04:23:55.607Z,0.00
2019-01-12T04:24:55.512Z,0.00
2019-01-12T04:25:55.408Z,0.00
2019-01-12T04:26:55.336Z,0.00
2019-01-12T04:27:55.335Z,0.00
2019-01-12T04:28:55.092Z,0.00
2019-01-12T04:29:54.986Z,0.00
2019-01-12T04:30:54.888Z,0.00
2019-01-12T04:31:54.797Z,0.00
2019-01-12T04:32:54.679Z,0.00
2019-01-12T04:33:54.573Z,0.00
2019-01-12T04:34:54.476Z,0.00
2019-01-12T04:35:54.482Z,0.00
2019-01-12T04:36:54.286Z,0.00
2019-01-12T04:37:54.183Z,0.00
2019-01-12T04:38:54.066Z,0.00
2019-01-12T04:39:53.962Z,0.00
2019-01-12T04:40:53.858Z,0.00
2019-01-12T04:41:53.868Z,0.00
2019-01-12T04:42:53.652Z,0.00
2019-01-12T04:43:53.543Z,0.00
2019-01-12T04:44:53.449Z,0.00
2019-01-12T04:45:53.338Z,0.00
2019-01-12T04:46:53.257Z,0.00
2019-01-12T04:47:53.135Z,0.00
2019-01-12T04:48:53.031Z,0.00
2019-01-12T04:49:52.929Z,0.00
2019-01-12T04:50:52.830Z,0.00
2019-01-12T04:51:52.745Z,0.00
2019-01-12T04:52:52.622Z,0.00
2019-01-12T04:53:52.517Z,0.00
2019-01-12T04:54:52.416Z,0.00
2019-01-12T04:55:52.311Z,0.00
2019-01-12T04:56:52.227Z,0.00
2019-01-12T04:57:52.109Z,0.00
2019-01-12T04:58:52.004Z,0.00
2019-01-12T04:59:51.899Z,0.00
2019-01-12T05:00:51.797Z,0.00
2019-01-12T05:01:51.709Z,0.00
2019-01-12T05:02:51.593Z,0.00
2019-01-12T05:03:51.491Z,0.00
2019-01-12T05:04:51.386Z,0.00
2019-01-12T05:05:51.282Z,0.00
2019-01-12T05:06:51.200Z,0.00
2019-01-12T05:07:51.078Z,0.00
2019-01-12T05:08:50.973Z,0.00
2019-01-12T05:09:50.869Z,0.00
2019-01-12T05:10:50.768Z,0.00
2019-01-12T05:11:50.678Z,0.00
2019-01-12T05:12:50.564Z,0.00
2019-01-12T05:13:50.461Z,0.00
2019-01-12T05:14:50.361Z,0.00
2019-01-12T05:15:50.255Z,0.00
2019-01-12T05:16:50.168Z,0.00
2019-01-12T05:17:50.045Z,0.00
2019-01-12T05:18:49.942Z,0.00
2019-01-12T05:19:49.847Z,0.00
2019-01-12T05:20:49.739Z,0.00
2019-01-12T05:21:49.651Z,0.00
2019-01-12T05:22:49.533Z,0.00
2019-01-12T05:23:49.428Z,0.00
2019-01-12T05:24:49.327Z,0.00
2019-01-12T05:25:49.499Z,0.00
2019-01-12T05:26:49.179Z,0.00
2019-01-12T05:27:49.019Z,0.00
2019-01-12T05:28:48.915Z,0.00
2019-01-12T05:29:48.811Z,0.00
2019-01-12T05:30:48.711Z,0.00
2019-01-12T05:31:48.623Z,0.00
2019-01-12T05:32:48.505Z,0.00
2019-01-12T05:33:48.403Z,0.00
2019-01-12T05:34:48.300Z,0.00
2019-01-12T05:35:48.192Z,0.00
2019-01-12T05:36:48.093Z,0.00
2019-01-12T05:37:48.003Z,0.00
2019-01-12T05:38:47.891Z,0.00
2019-01-12T05:39:47.782Z,0.00
2019-01-12T05:40:47.701Z,0.00
2019-01-12T05:41:47.578Z,0.00
2019-01-12T05:42:47.501Z,0.00
2019-01-12T05:43:47.372Z,0.00
2019-01-12T05:44:47.270Z,0.00
2019-01-12T05:45:47.166Z,0.00
2019-01-12T05:46:47.065Z,0.00
2019-01-12T05:47:46.974Z,0.00
2019-01-12T05:48:46.861Z,0.00
2019-01-12T05:49:46.763Z,0.00
2019-01-12T05:50:46.654Z,0.00
2019-01-12T05:51:46.550Z,0.00
2019-01-12T05:52:46.879Z,0.00
2019-01-12T05:53:46.342Z,0.00
2019-01-12T05:54:46.241Z,0.00
2019-01-12T05:55:46.137Z,0.00
2019-01-12T05:56:46.035Z,0.00
2019-01-12T05:57:45.963Z,0.00
2019-01-12T05:58:45.843Z,0.00
2019-01-12T05:59:45.724Z,0.00
2019-01-12T06:00:45.622Z,0.00
2019-01-12T06:01:45.521Z,0.00
2019-01-12T06:02:45.437Z,0.00
2019-01-12T06:03:45.315Z,0.00
2019-01-12T06:04:45.212Z,0.00
2019-01-12T06:05:45.105Z,0.00
2019-01-12T06:06:45.002Z,0.00
2019-01-12T06:07:44.919Z,0.00
2019-01-12T06:08:44.802Z,0.00
2019-01-12T06:09:44.694Z,0.00
2019-01-12T06:10:44.591Z,0.00
2019-01-12T06:11:44.486Z,0.00
2019-01-12T06:12:44.400Z,0.00
2019-01-12T06:13:44.281Z,0.00
2019-01-12T06:14:44.179Z,0.00
2019-01-12T06:15:44.076Z,0.00
2019-01-12T06:16:43.972Z,0.00
2019-01-12T06:17:43.891Z,0.00
2019-01-12T06:18:43.769Z,0.00
2019-01-12T06:19:43.666Z,0.00
2019-01-12T06:20:43.565Z,0.00
2019-01-12T06:21:43.461Z,0.00
2019-01-12T06:22:47.947Z,0.00
2019-01-12T06:23:43.256Z,0.00
2019-01-12T06:24:43.149Z,0.00
2019-01-12T06:25:43.050Z,0.00
2019-01-12T06:26:42.946Z,0.00
2019-01-12T06:27:42.960Z,0.00
2019-01-12T06:28:42.741Z,0.00
2019-01-12T06:29:42.641Z,0.00
2019-01-12T06:30:42.535Z,0.00
2019-01-12T06:31:42.431Z,0.00
2019-01-12T06:32:42.345Z,0.00
2019-01-12T06:33:42.229Z,0.00
2019-01-12T06:34:42.228Z,0.00
2019-01-12T06:35:42.016Z,0.00
2019-01-12T06:36:41.918Z,0.00
2019-01-12T06:37:41.825Z,0.00
2019-01-12T06:38:41.711Z,0.00
2019-01-12T06:39:41.604Z,0.00
2019-01-12T06:40:41.507Z,0.00
2019-01-12T06:41:41.505Z,0.00
2019-01-12T06:42:41.322Z,0.00
2019-01-12T06:43:41.193Z,4.00
2019-01-12T06:44:41.095Z,4.00
2019-01-12T06:45:41.014Z,4.00
2019-01-12T06:46:40.888Z,4.00
2019-01-12T06:47:40.799Z,4.00
2019-01-12T06:48:40.790Z,8.00
2019-01-12T06:49:40.576Z,4.00
2019-01-12T06:50:40.474Z,8.00
2019-01-12T06:51:40.370Z,12.00
2019-01-12T06:52:40.288Z,8.00
2019-01-12T06:53:40.166Z,12.00
2019-01-12T06:54:40.082Z,12.00
2019-01-12T06:55:40.081Z,16.00
2019-01-12T06:56:39.859Z,16.00
2019-01-12T06:57:39.775Z,16.00
2019-01-12T06:58:39.653Z,20.00
2019-01-12T06:59:39.550Z,28.00
2019-01-12T07:00:39.444Z,32.00
2019-01-12T07:01:39.342Z,36.00
2019-01-12T07:02:39.366Z,40.00
2019-01-12T07:03:39.160Z,40.00
2019-01-12T07:04:39.033Z,48.00
2019-01-12T07:05:38.932Z,52.00
2019-01-12T07:06:38.831Z,60.00
2019-01-12T07:07:38.744Z,64.00
2019-01-12T07:08:38.626Z,80.00
2019-01-12T07:09:38.620Z,84.00
2019-01-12T07:10:38.419Z,88.00
2019-01-12T07:11:38.317Z,88.00
2019-01-12T07:12:38.228Z,92.00
2019-01-12T07:13:38.108Z,108.00
2019-01-12T07:14:38.007Z,116.00
2019-01-12T07:15:37.902Z,120.00
2019-01-12T07:16:37.907Z,132.00
2019-01-12T07:17:37.704Z,132.00
2019-01-12T07:18:37.616Z,140.00
2019-01-12T07:19:37.490Z,144.00
2019-01-12T07:20:37.387Z,160.00
2019-01-12T07:21:37.286Z,160.00
2019-01-12T07:22:37.184Z,160.00
2019-01-12T07:23:37.202Z,172.00
2019-01-12T07:24:36.973Z,184.00
2019-01-12T07:25:36.876Z,200.00
2019-01-12T07:26:36.769Z,208.00
2019-01-12T07:27:36.669Z,208.00
2019-01-12T07:28:36.617Z,200.00
2019-01-12T07:29:36.565Z,224.00
2019-01-12T07:30:36.359Z,260.00
2019-01-12T07:31:36.261Z,236.00
2019-01-12T07:32:36.156Z,256.00
2019-01-12T07:33:36.065Z,280.00
2019-01-12T07:34:35.949Z,300.00
2019-01-12T07:35:35.841Z,284.00
2019-01-12T07:36:35.742Z,292.00
2019-01-12T07:37:35.637Z,332.00
2019-01-12T07:38:35.551Z,324.00
2019-01-12T07:39:35.432Z,316.00
2019-01-12T07:40:35.330Z,372.00
2019-01-12T07:41:35.225Z,372.00
2019-01-12T07:42:35.126Z,432.00
2019-01-12T07:43:35.037Z,460.00
2019-01-12T07:44:34.916Z,456.00
2019-01-12T07:45:34.816Z,504.00
2019-01-12T07:46:34.716Z,484.00
2019-01-12T07:47:34.612Z,476.00
2019-01-12T07:48:34.522Z,508.00
2019-01-12T07:49:34.403Z,472.00
2019-01-12T07:50:34.302Z,496.00
2019-01-12T07:51:34.196Z,516.00
2019-01-12T07:52:34.096Z,516.00
2019-01-12T07:53:34.006Z,532.00
2019-01-12T07:54:33.888Z,588.00
2019-01-12T07:55:33.789Z,688.00
2019-01-12T07:56:33.684Z,688.00
2019-01-12T07:57:33.581Z,716.00
2019-01-12T07:58:33.496Z,580.00
2019-01-12T07:59:33.378Z,524.00
2019-01-12T08:00:33.276Z,572.00
2019-01-12T08:01:33.170Z,616.00
2019-01-12T08:02:33.069Z,632.00
2019-01-12T08:03:32.979Z,620.00
2019-01-12T08:04:32.863Z,660.00
2019-01-12T08:05:32.762Z,636.00
2019-01-12T08:06:32.658Z,700.00
2019-01-12T08:07:32.563Z,752.00
2019-01-12T08:08:32.505Z,760.00
2019-01-12T08:09:32.348Z,732.00
2019-01-12T08:10:32.249Z,820.00
2019-01-12T08:11:32.144Z,876.00
2019-01-12T08:12:32.040Z,824.00
2019-01-12T08:13:31.950Z,872.00
2019-01-12T08:14:31.837Z,960.00
2019-01-12T08:15:31.733Z,1044.00
2019-01-12T08:16:31.640Z,1184.00
2019-01-12T08:17:31.524Z,1232.00
2019-01-12T08:18:31.437Z,1112.00
2019-01-12T08:19:31.323Z,1004.00
2019-01-12T08:20:31.216Z,1036.00
2019-01-12T08:21:31.113Z,1196.00
2019-01-12T08:22:31.019Z,1200.00
2019-01-12T08:23:30.927Z,1364.00
2019-01-12T08:24:30.804Z,1456.00
2019-01-12T08:25:30.701Z,1632.00
2019-01-12T08:26:31.252Z,1580.00
2019-01-12T08:27:30.496Z,1308.00
2019-01-12T08:28:30.414Z,1156.00
2019-01-12T08:29:30.292Z,1316.00
2019-01-12T08:30:30.190Z,1380.00
2019-01-12T08:31:30.084Z,1512.00
2019-01-12T08:32:29.986Z,1492.00
2019-01-12T08:33:29.897Z,1412.00
2019-01-12T08:34:29.782Z,1152.00
2019-01-12T08:35:29.679Z,1096.00
2019-01-12T08:36:29.590Z,1212.00
2019-01-12T08:37:29.469Z,1492.00
2019-01-12T08:38:29.384Z,1772.00
2019-01-12T08:39:29.265Z,1744.00
2019-01-12T08:40:29.164Z,1908.00
2019-01-12T08:41:29.063Z,1896.00
2019-01-12T08:42:28.960Z,1824.00
2019-01-12T08:43:28.872Z,1808.00
2019-01-12T08:44:28.751Z,1816.00
2019-01-12T08:45:28.652Z,1856.00
2019-01-12T08:46:28.547Z,1904.00
2019-01-12T08:47:28.445Z,1888.00
2019-01-12T08:48:28.357Z,1996.00
2019-01-12T08:49:28.239Z,1868.00
2019-01-12T08:50:28.137Z,1924.00
2019-01-12T08:51:28.034Z,1892.00
2019-01-12T08:52:27.930Z,1988.00
2019-01-12T08:53:27.843Z,2116.00
2019-01-12T08:54:27.725Z,2720.00
2019-01-12T08:55:27.621Z,2720.00
2019-01-12T08:56:27.521Z,2744.00
2019-01-12T08:57:27.420Z,2408.00
2019-01-12T08:58:27.331Z,2708.00
2019-01-12T08:59:27.213Z,2556.00
2019-01-12T09:00:27.115Z,2452.00
2019-01-12T09:01:27.007Z,2640.00
2019-01-12T09:02:26.905Z,2404.00
2019-01-12T09:03:26.815Z,2360.00
2019-01-12T09:04:26.719Z,2512.00
2019-01-12T09:05:26.596Z,2768.00
2019-01-12T09:06:26.497Z,2764.00
2019-01-12T09:07:26.498Z,3140.00
2019-01-12T09:08:26.295Z,3368.00
2019-01-12T09:09:26.205Z,3412.00
2019-01-12T09:10:26.085Z,3368.00
2019-01-12T09:11:25.982Z,3596.00
2019-01-12T09:12:25.884Z,3504.00
2019-01-12T09:13:25.797Z,3720.00
2019-01-12T09:14:25.814Z,3612.00
2019-01-12T09:15:25.577Z,3008.00
2019-01-12T09:16:25.476Z,2972.00
2019-01-12T09:17:25.373Z,3424.00
2019-01-12T09:18:25.267Z,3468.00
2019-01-12T09:19:25.180Z,3204.00
2019-01-12T09:20:25.062Z,3096.00
2019-01-12T09:21:25.061Z,3132.00
2019-01-12T09:22:24.861Z,3108.00
2019-01-12T09:23:24.760Z,3340.00
2019-01-12T09:24:24.672Z,3164.00
2019-01-12T09:25:24.552Z,3468.00
2019-01-12T09:26:24.453Z,3704.00
2019-01-12T09:27:24.343Z,3644.00
2019-01-12T09:28:24.346Z,3800.00
2019-01-12T09:29:24.159Z,3488.00
2019-01-12T09:30:24.042Z,3432.00
2019-01-12T09:31:23.938Z,3648.00
2019-01-12T09:32:23.833Z,3768.00
2019-01-12T09:33:23.734Z,3976.00
2019-01-12T09:34:23.752Z,4096.00
2019-01-12T09:35:23.529Z,4672.00
2019-01-12T09:36:23.430Z,5536.00
2019-01-12T09:37:23.332Z,6520.00
2019-01-12T09:38:23.222Z,4992.00
2019-01-12T09:39:23.134Z,4608.00
2019-01-12T09:40:23.029Z,4224.00
2019-01-12T09:41:23.025Z,3952.00
2019-01-12T09:42:22.813Z,3852.00
2019-01-12T09:43:22.710Z,4036.00
2019-01-12T09:44:22.628Z,3876.00
2019-01-12T09:45:22.509Z,3792.00
2019-01-12T09:46:22.409Z,3696.00
2019-01-12T09:47:22.306Z,3968.00
2019-01-12T09:48:22.313Z,4036.00
2019-01-12T09:49:22.116Z,4060.00
2019-01-12T09:50:21.995Z,4508.00
2019-01-12T09:51:21.898Z,4908.00
2019-01-12T09:52:21.794Z,4132.00
2019-01-12T09:53:21.693Z,3584.00
2019-01-12T09:54:21.608Z,3484.00
2019-01-12T09:55:21.586Z,3564.00
2019-01-12T09:56:21.386Z,3656.00
2019-01-12T09:57:21.284Z,3824.00
2019-01-12T09:58:21.188Z,4240.00
2019-01-12T09:59:21.096Z,4396.00
2019-01-12T10:00:20.977Z,5004.00
2019-01-12T10:01:20.875Z,5084.00
2019-01-12T10:02:20.873Z,5364.00
2019-01-12T10:03:20.672Z,5204.00
2019-01-12T10:04:20.583Z,4784.00
2019-01-12T10:05:20.477Z,4028.00
2019-01-12T10:06:20.362Z,3752.00
2019-01-12T10:07:20.260Z,3328.00
2019-01-12T10:08:20.160Z,3440.00
2019-01-12T10:09:20.204Z,3760.00
2019-01-12T10:10:20.084Z,3836.00
2019-01-12T10:11:19.857Z,4000.00
2019-01-12T10:12:19.754Z,3936.00
2019-01-12T10:13:19.651Z,3584.00
2019-01-12T10:14:19.566Z,4116.00
2019-01-12T10:15:19.449Z,4524.00
2019-01-12T10:16:19.451Z,4344.00
2019-01-12T10:17:19.242Z,4608.00
2019-01-12T10:18:19.142Z,4248.00
2019-01-12T10:19:19.056Z,3820.00
2019-01-12T10:20:18.942Z,3344.00
2019-01-12T10:21:18.837Z,3324.00
2019-01-12T10:22:18.743Z,3160.00
2019-01-12T10:23:18.742Z,3012.00
2019-01-12T10:24:18.554Z,3196.00
2019-01-12T10:25:18.432Z,3524.00
2019-01-12T10:26:18.327Z,3784.00
2019-01-12T10:27:18.227Z,3988.00
2019-01-12T10:28:18.121Z,4256.00
2019-01-12T10:29:18.067Z,4652.00
2019-01-12T10:30:17.921Z,5456.00
2019-01-12T10:31:17.820Z,5680.00
2019-01-12T10:32:17.720Z,5764.00
2019-01-12T10:33:17.613Z,4844.00
2019-01-12T10:34:17.530Z,4712.00
2019-01-12T10:35:17.413Z,4596.00
2019-01-12T10:36:17.308Z,4712.00
2019-01-12T10:37:17.329Z,5492.00
2019-01-12T10:38:17.109Z,6100.00
2019-01-12T10:39:18.062Z,5268.00
2019-01-12T10:40:16.901Z,4056.00
2019-01-12T10:41:16.798Z,2780.00
2019-01-12T10:42:16.700Z,2672.00
2019-01-12T10:43:16.702Z,2960.00
2019-01-12T10:44:16.515Z,3652.00
2019-01-12T10:45:16.394Z,4404.00
2019-01-12T10:46:16.298Z,4244.00
2019-01-12T10:47:16.195Z,4892.00
2019-01-12T10:48:16.094Z,4924.00
2019-01-12T10:49:15.990Z,4560.00
2019-01-12T10:50:15.902Z,4712.00
2019-01-12T10:51:15.785Z,4832.00
2019-01-12T10:52:15.684Z,4668.00
2019-01-12T10:53:15.584Z,5044.00
2019-01-12T10:54:15.482Z,6376.00
2019-01-12T10:55:15.392Z,5504.00
2019-01-12T10:56:15.277Z,5348.00
2019-01-12T10:57:15.172Z,5340.00
2019-01-12T10:58:15.070Z,4732.00
2019-01-12T10:59:14.970Z,4760.00
2019-01-12T11:00:14.884Z,4856.00
2019-01-12T11:01:14.765Z,5260.00
2019-01-12T11:02:15.128Z,5908.00
2019-01-12T11:03:14.563Z,5892.00
2019-01-12T11:04:14.463Z,5876.00
2019-01-12T11:05:14.380Z,6216.00
2019-01-12T11:06:14.258Z,4956.00
2019-01-12T11:07:14.158Z,4860.00
2019-01-12T11:08:14.056Z,5044.00
2019-01-12T11:09:13.954Z,5052.00
2019-01-12T11:10:13.870Z,5568.00
2019-01-12T11:11:13.754Z,5028.00
2019-01-12T11:12:13.651Z,5128.00
2019-01-12T11:13:13.545Z,5076.00
2019-01-12T11:14:13.448Z,5532.00
2019-01-12T11:15:13.358Z,5528.00
2019-01-12T11:16:13.264Z,4868.00
2019-01-12T11:17:13.141Z,4376.00
2019-01-12T11:18:13.040Z,4424.00
2019-01-12T11:19:12.938Z,3880.00
2019-01-12T11:20:12.850Z,3880.00
2019-01-12T11:21:12.736Z,4532.00
2019-01-12T11:22:12.638Z,4672.00
2019-01-12T11:23:12.545Z,4680.00
2019-01-12T11:24:12.427Z,4640.00
2019-01-12T11:25:12.342Z,4708.00
2019-01-12T11:26:12.225Z,4688.00
2019-01-12T11:27:12.520Z,4316.00
2019-01-12T11:28:12.021Z,4136.00
2019-01-12T11:29:11.921Z,3740.00
2019-01-12T11:30:11.839Z,3792.00
2019-01-12T11:31:11.716Z,3488.00
2019-01-12T11:32:11.617Z,3452.00
2019-01-12T11:33:11.629Z,3692.00
2019-01-12T11:34:11.411Z,3696.00
2019-01-12T11:35:11.327Z,3792.00
2019-01-12T11:36:11.210Z,4264.00
2019-01-12T11:37:11.108Z,4620.00
2019-01-12T11:38:11.003Z,4824.00
2019-01-12T11:39:10.905Z,4720.00
2019-01-12T11:40:10.819Z,4456.00
2019-01-12T11:41:10.702Z,4620.00
2019-01-12T11:42:10.601Z,3748.00
2019-01-12T11:43:10.496Z,4168.00
2019-01-12T11:44:10.393Z,4312.00
2019-01-12T11:45:10.309Z,4212.00
2019-01-12T11:46:10.196Z,4852.00
2019-01-12T11:47:10.090Z,4716.00
2019-01-12T11:48:09.986Z,4732.00
2019-01-12T11:49:09.884Z,4384.00
2019-01-12T11:50:09.803Z,4512.00
2019-01-12T11:51:09.682Z,4220.00
2019-01-12T11:52:09.583Z,4152.00
2019-01-12T11:53:09.475Z,4292.00
2019-01-12T11:54:09.377Z,4532.00
2019-01-12T11:55:09.288Z,4432.00
2019-01-12T11:56:09.174Z,4024.00
2019-01-12T11:57:09.072Z,3908.00
2019-01-12T11:58:08.968Z,4024.00
2019-01-12T11:59:08.869Z,4176.00
2019-01-12T12:00:08.781Z,4132.00
2019-01-12T12:01:08.663Z,4264.00
2019-01-12T12:02:08.559Z,4080.00
2019-01-12T12:03:08.464Z,4072.00
2019-01-12T12:04:08.357Z,4112.00
2019-01-12T12:05:08.270Z,3980.00
2019-01-12T12:06:08.152Z,3356.00
2019-01-12T12:07:08.052Z,3192.00
2019-01-12T12:08:07.950Z,3208.00
2019-01-12T12:09:07.847Z,3152.00
2019-01-12T12:10:07.762Z,3032.00
2019-01-12T12:11:07.643Z,2908.00
2019-01-12T12:12:07.540Z,3080.00
2019-01-12T12:13:07.436Z,3580.00
2019-01-12T12:14:07.338Z,4528.00
2019-01-12T12:15:07.253Z,4504.00
2019-01-12T12:16:07.585Z,4204.00
2019-01-12T12:17:07.029Z,4652.00
2019-01-12T12:18:06.930Z,5336.00
2019-01-12T12:19:06.824Z,5872.00
2019-01-12T12:20:06.738Z,6208.00
2019-01-12T12:21:06.622Z,5424.00
2019-01-12T12:22:06.626Z,5528.00
2019-01-12T12:23:06.415Z,5680.00
2019-01-12T12:24:06.316Z,5220.00
2019-01-12T12:25:06.232Z,4732.00
2019-01-12T12:26:06.112Z,4508.00
2019-01-12T12:27:06.011Z,4328.00
2019-01-12T12:28:05.908Z,4572.00
2019-01-12T12:29:05.809Z,3880.00
2019-01-12T12:30:05.706Z,3548.00
2019-01-12T12:31:05.619Z,3040.00
2019-01-12T12:32:05.502Z,2928.00
2019-01-12T12:33:05.398Z,2800.00
2019-01-12T12:34:05.299Z,2736.00
2019-01-12T12:35:05.218Z,2816.00
2019-01-12T12:36:05.195Z,2584.00
2019-01-12T12:37:04.995Z,2452.00
2019-01-12T12:38:04.891Z,2404.00
2019-01-12T12:39:04.791Z,2068.00
2019-01-12T12:40:04.687Z,2124.00
2019-01-12T12:41:04.604Z,2196.00
2019-01-12T12:42:04.483Z,2192.00
2019-01-12T12:43:04.491Z,2116.00
2019-01-12T12:44:04.279Z,2008.00
2019-01-12T12:45:04.187Z,1904.00